Middle Georgia Regional Airport Macon US
ICAO: KMCN
IATA: MCN
Category: Medium
Scheduled Services: Yes

Elevation: 354 ft
TransAlt. 18000 ft.

Airport Communications:
ATLANTA APP/DEP:118.95
ASOS:120.775
ATIS:120.775
CTAF:128.2
GND:121.65
MACON RDO:122.2
MACON TWR:128.2
UNICOM:122.95

KMCN Zoom In..

Runways:

(A) RW 05 length 6501 ft width 150 ft
ILS 109.50 / hdg 51

(B) RW 13 length 5000 ft width 150 ft
---- / hdg 133

(C) RW 23 length 6501 ft width 150 ft
---- / hdg 231

(D) RW 31 length 5000 ft width 150 ft
---- / hdg 313

Location; KMCN
Day. 19 / Time. 20.42 Zulu
* Altimeter: 29.89
* Temperature: 32° c. 89.6°f.
* Wind from: 070° Speed 10 kn.
Dewpoint: 24° c.
Visibility: 10 Statute Miles.
Clouds: Scattered 3700 ft.
Clouds: Broken 5000 ft.

KMCN 192042Z 07010KT 10SM VCTS SCT037 BKN050 32/24 A2989 RMK AO2 LTG DSNT E AND SE T03220239


Wind From 070°
Speed 10 kn.

 
 
jpsmedia.com for Web Design worldairports.se 2018   terms of use